createdAt,value
2022-12-05T00:00:30.231Z,101139.05
2022-12-05T00:03:11.469Z,101144.73
2022-12-05T00:05:43.953Z,101147.64
2022-12-05T00:08:15.686Z,101148.96
2022-12-05T00:10:47.344Z,101150.85
2022-12-05T00:13:19.053Z,101155.51
2022-12-05T00:15:50.848Z,101155.73
2022-12-05T00:18:22.436Z,101154.27
2022-12-05T00:20:54.083Z,101152.45
2022-12-05T00:23:25.717Z,101148.21
2022-12-05T00:25:57.686Z,101150.84
2022-12-05T00:28:29.435Z,101141.35
2022-12-05T00:31:05.422Z,101141.14
2022-12-05T00:33:37.750Z,101139.86
2022-12-05T00:36:13.490Z,101141.35
2022-12-05T00:38:45.645Z,101143.08
2022-12-05T00:41:19.715Z,101143.65
2022-12-05T00:43:52.284Z,101150.95
2022-12-05T00:46:26.436Z,101152.78
2022-12-05T00:48:59.415Z,101158.98
2022-12-05T00:51:33.146Z,101157.17
2022-12-05T00:54:07.824Z,101152.55
2022-12-05T00:56:39.787Z,101150.58
2022-12-05T00:59:15.911Z,101147.46
2022-12-05T01:01:50.040Z,101151.42
2022-12-05T01:04:24.164Z,101149.34
2022-12-05T01:06:59.588Z,101154.23
2022-12-05T01:09:31.333Z,101149.13
2022-12-05T01:12:03.260Z,101149.13
2022-12-05T01:14:34.872Z,101149.45
2022-12-05T01:17:06.597Z,101150.95
2022-12-05T01:19:38.367Z,101147.42
2022-12-05T01:22:10.019Z,101144.46
2022-12-05T01:24:42.070Z,101151.75
2022-12-05T01:27:13.712Z,101154.54
2022-12-05T01:29:45.594Z,101156.95
2022-12-05T01:32:17.381Z,101152.61
2022-12-05T01:34:49.256Z,101154.70
2022-12-05T01:37:21.071Z,101156.45
2022-12-05T01:39:52.707Z,101151.31
2022-12-05T01:42:26.288Z,101151.48
2022-12-05T01:45:08.468Z,101149.23
2022-12-05T01:47:40.240Z,101147.50
2022-12-05T01:50:21.624Z,101148.86
2022-12-05T01:52:53.525Z,101149.40
2022-12-05T01:55:25.568Z,101146.34
2022-12-05T01:57:59.652Z,101145.91
2022-12-05T02:00:32.148Z,101143.77
2022-12-05T02:03:07.554Z,101144.20
2022-12-05T02:05:39.989Z,101142.96
2022-12-05T02:08:13.064Z,101140.48
2022-12-05T02:10:47.716Z,101144.46
2022-12-05T02:13:35.654Z,101148.05
2022-12-05T02:16:14.494Z,101150.73
2022-12-05T02:18:59.405Z,101150.30
2022-12-05T02:21:50.521Z,101150.73
2022-12-05T02:24:52.161Z,101151.16
2022-12-05T02:27:53.590Z,101142.91
2022-12-05T02:30:27.972Z,101141.35
2022-12-05T02:33:11.709Z,101141.64
2022-12-05T02:35:58.008Z,101142.97
2022-12-05T02:38:38.465Z,101143.33
2022-12-05T02:41:18.944Z,101139.58
2022-12-05T02:43:57.674Z,101143.52
2022-12-05T02:46:31.962Z,101145.08
2022-12-05T02:49:08.432Z,101146.21
2022-12-05T02:51:43.479Z,101148.67
2022-12-05T02:54:20.764Z,101146.15
2022-12-05T02:56:53.756Z,101142.19
2022-12-05T02:59:25.386Z,101134.95
2022-12-05T03:01:57.413Z,101131.31
2022-12-05T03:04:31.213Z,101130.02
2022-12-05T03:07:08.419Z,101130.19
2022-12-05T03:09:44.992Z,101123.18
2022-12-05T03:12:22.310Z,101118.14
2022-12-05T03:14:59.124Z,101119.02
2022-12-05T03:17:35.424Z,101114.45
2022-12-05T03:20:12.693Z,101115.80
2022-12-05T03:22:50.827Z,101117.72
2022-12-05T03:25:25.299Z,101113.95
2022-12-05T03:28:04.174Z,101114.23
2022-12-05T03:30:39.874Z,101118.52
2022-12-05T03:33:16.047Z,101120.66
2022-12-05T03:35:58.270Z,101123.91
2022-12-05T03:38:36.441Z,101120.70
2022-12-05T03:41:15.806Z,101119.96
2022-12-05T03:43:54.695Z,101117.60
2022-12-05T03:46:30.344Z,101115.34
2022-12-05T03:49:08.498Z,101118.23
2022-12-05T03:51:43.669Z,101116.56
2022-12-05T03:54:19.573Z,101119.52
2022-12-05T03:56:56.078Z,101121.14
2022-12-05T03:59:33.690Z,101122.10
2022-12-05T04:02:12.535Z,101116.36
2022-12-05T04:04:49.694Z,101113.14
2022-12-05T04:07:22.766Z,101109.51
2022-12-05T04:09:58.226Z,101110.05
2022-12-05T04:12:33.846Z,101110.42
2022-12-05T04:15:13.433Z,101114.02
2022-12-05T04:17:53.779Z,101114.45
2022-12-05T04:20:50.570Z,101116.05
2022-12-05T04:23:23.089Z,101110.53
2022-12-05T04:26:04.554Z,101106.41
2022-12-05T04:28:40.827Z,101106.40
2022-12-05T04:31:17.914Z,101107.05
2022-12-05T04:33:54.990Z,101102.29
2022-12-05T04:36:32.765Z,101104.38
2022-12-05T04:39:16.104Z,101102.77
2022-12-05T04:41:54.713Z,101097.84
2022-12-05T04:44:30.815Z,101100.58
2022-12-05T04:47:06.508Z,101097.99
2022-12-05T04:49:41.595Z,101101.80
2022-12-05T04:52:14.256Z,101105.50
2022-12-05T04:54:51.352Z,101105.88
2022-12-05T04:57:30.468Z,101109.35
2022-12-05T05:00:04.360Z,101111.02
2022-12-05T05:02:46.051Z,101115.57
2022-12-05T05:05:20.628Z,101110.48
2022-12-05T05:07:56.644Z,101111.43
2022-12-05T05:10:34.845Z,101103.45
2022-12-05T05:13:06.574Z,101099.81
2022-12-05T05:15:38.442Z,101101.19
2022-12-05T05:18:11.997Z,101097.94
2022-12-05T05:20:43.611Z,101101.25
2022-12-05T05:23:15.483Z,101101.13
2022-12-05T05:25:47.102Z,101101.94
2022-12-05T05:28:18.810Z,101101.28
2022-12-05T05:30:50.841Z,101101.30
2022-12-05T05:33:22.623Z,101101.45
2022-12-05T05:35:54.467Z,101100.92
2022-12-05T05:38:26.315Z,101097.77
2022-12-05T05:40:58.051Z,101093.65
2022-12-05T05:43:29.749Z,101091.95
2022-12-05T05:46:04.431Z,101092.86
2022-12-05T05:48:36.314Z,101087.71
2022-12-05T05:51:09.766Z,101092.75
2022-12-05T05:53:41.695Z,101092.90
2022-12-05T05:56:20.169Z,101088.45
2022-12-05T05:58:58.356Z,101095.30
2022-12-05T06:01:30.625Z,101097.24
2022-12-05T06:04:02.562Z,101100.83
2022-12-05T06:06:34.912Z,101100.73
2022-12-05T06:09:08.713Z,101103.61
2022-12-05T06:11:40.436Z,101103.94
2022-12-05T06:14:12.585Z,101106.17
2022-12-05T06:16:44.243Z,101106.06
2022-12-05T06:19:16.102Z,101111.96
2022-12-05T06:21:49.490Z,101110.09
2022-12-05T06:24:21.161Z,101112.60
2022-12-05T06:26:52.829Z,101115.18
2022-12-05T06:29:26.779Z,101114.31
2022-12-05T06:31:59.909Z,101121.02
2022-12-05T06:34:32.734Z,101118.23
2022-12-05T06:37:04.577Z,101123.06
2022-12-05T06:39:36.274Z,101127.41
2022-12-05T06:42:08.119Z,101129.83
2022-12-05T06:44:41.388Z,101134.20
2022-12-05T06:47:13.040Z,101132.33
2022-12-05T06:49:45.047Z,101129.29
2022-12-05T06:52:16.625Z,101125.69
2022-12-05T06:54:48.360Z,101131.00
2022-12-05T06:57:20.114Z,101133.20
2022-12-05T07:00:13.166Z,101137.61
2022-12-05T07:02:44.929Z,101133.86
2022-12-05T07:05:16.681Z,101130.10
2022-12-05T07:07:48.507Z,101130.52
2022-12-05T07:10:27.483Z,101129.61
2022-12-05T07:12:59.132Z,101132.56
2022-12-05T07:15:30.780Z,101131.96
2022-12-05T07:18:02.478Z,101126.84
2022-12-05T07:20:49.527Z,101131.94
2022-12-05T07:23:25.889Z,101134.29
2022-12-05T07:25:58.312Z,101132.19
2022-12-05T07:28:30.028Z,101135.89
2022-12-05T07:31:06.411Z,101135.19
2022-12-05T07:33:38.783Z,101137.91
2022-12-05T07:36:14.699Z,101132.67
2022-12-05T07:38:46.876Z,101129.73
2022-12-05T07:41:23.143Z,101126.02
2022-12-05T07:43:55.773Z,101132.77
2022-12-05T07:46:28.680Z,101134.54
2022-12-05T07:49:00.531Z,101140.45
2022-12-05T07:52:07.902Z,101143.27
2022-12-05T07:54:39.856Z,101150.25
2022-12-05T07:57:11.846Z,101147.79
2022-12-05T07:59:44.516Z,101146.19
2022-12-05T08:02:16.472Z,101149.66
2022-12-05T08:04:51.212Z,101146.60
2022-12-05T08:07:23.087Z,101144.73
2022-12-05T08:09:55.467Z,101146.23
2022-12-05T08:12:27.434Z,101145.58
2022-12-05T08:14:59.313Z,101141.63
2022-12-05T08:17:33.764Z,101141.52
2022-12-05T08:20:06.124Z,101148.73
2022-12-05T08:22:44.208Z,101153.58
2022-12-05T08:25:16.139Z,101155.56
2022-12-05T08:27:47.962Z,101157.27
2022-12-05T08:30:27.064Z,101154.82
2022-12-05T08:32:59.039Z,101147.04
2022-12-05T08:35:30.965Z,101148.70
2022-12-05T08:38:03.401Z,101141.46
2022-12-05T08:40:36.241Z,101144.03
2022-12-05T08:43:08.415Z,101143.02
2022-12-05T08:45:40.427Z,101146.02
2022-12-05T08:48:13.054Z,101146.66
2022-12-05T08:50:44.973Z,101143.70
2022-12-05T08:53:26.406Z,101147.30
2022-12-05T08:56:04.689Z,101151.00
2022-12-05T08:58:37.294Z,101151.74
2022-12-05T09:01:12.112Z,101152.70
2022-12-05T09:03:48.086Z,101155.66
2022-12-05T09:06:23.827Z,101159.95
2022-12-05T09:08:58.649Z,101161.44
2022-12-05T09:11:33.749Z,101161.35
2022-12-05T09:14:06.173Z,101156.52
2022-12-05T09:16:39.838Z,101156.73
2022-12-05T09:19:17.486Z,101161.77
2022-12-05T09:21:49.402Z,101157.11
2022-12-05T09:24:21.485Z,101151.21
2022-12-05T09:26:53.464Z,101153.95
2022-12-05T09:29:25.825Z,101152.84
2022-12-05T09:31:57.754Z,101152.83
2022-12-05T09:34:29.731Z,101150.27
2022-12-05T09:37:23.280Z,101145.38
2022-12-05T09:39:53.907Z,101153.58
2022-12-05T09:42:39.727Z,101155.89
2022-12-05T09:45:26.945Z,101150.19
2022-12-05T09:48:06.108Z,101150.36
2022-12-05T09:50:45.356Z,101146.39
2022-12-05T09:53:28.542Z,101145.25
2022-12-05T09:56:06.410Z,101147.20
2022-12-05T09:58:45.157Z,101148.10
2022-12-05T10:01:28.563Z,101149.49
2022-12-05T10:04:17.639Z,101146.17
2022-12-05T10:06:56.505Z,101143.22
2022-12-05T10:09:48.544Z,101141.17
2022-12-05T10:12:40.000Z,101140.20
2022-12-05T10:15:18.358Z,101131.90
2022-12-05T10:17:57.847Z,101129.44
2022-12-05T10:20:35.153Z,101124.93
2022-12-05T10:23:28.124Z,101123.88
2022-12-05T10:26:10.596Z,101124.09
2022-12-05T10:28:51.822Z,101119.20
2022-12-05T10:31:25.462Z,101114.65
2022-12-05T10:34:04.302Z,101115.88
2022-12-05T10:36:36.740Z,101114.36
2022-12-05T10:39:11.507Z,101115.77
2022-12-05T10:41:43.649Z,101108.61
2022-12-05T10:44:16.090Z,101112.39
2022-12-05T10:46:48.211Z,101113.57
2022-12-05T10:49:21.265Z,101109.23
2022-12-05T10:51:53.258Z,101108.38
2022-12-05T10:54:27.726Z,101113.80
2022-12-05T10:56:59.732Z,101116.95
2022-12-05T10:59:49.127Z,101118.44
2022-12-05T11:02:27.074Z,101115.95
2022-12-05T11:05:05.016Z,101114.14
2022-12-05T11:07:48.329Z,101115.98
2022-12-05T11:10:27.497Z,101108.15
2022-12-05T11:13:00.899Z,101100.89
2022-12-05T11:15:33.427Z,101101.86
2022-12-05T11:18:27.857Z,101110.29
2022-12-05T11:21:09.410Z,101107.21
2022-12-05T11:23:41.888Z,101106.17
2022-12-05T11:26:34.597Z,101102.59
2022-12-05T11:29:27.202Z,101105.90
2022-12-05T11:31:59.369Z,101101.98
2022-12-05T11:34:37.551Z,101100.66
2022-12-05T11:37:15.849Z,101102.77
2022-12-05T11:39:47.687Z,101101.77
2022-12-05T11:42:28.564Z,101096.05
2022-12-05T11:45:19.485Z,101095.84
2022-12-05T11:48:05.682Z,101093.36
2022-12-05T11:50:47.379Z,101091.98
2022-12-05T11:53:33.898Z,101088.64
2022-12-05T11:56:19.064Z,101089.82
2022-12-05T11:59:05.577Z,101087.75
2022-12-05T12:01:51.870Z,101080.15
2022-12-05T12:04:51.672Z,101084.84
2022-12-05T12:07:40.775Z,101084.67
2022-12-05T12:10:34.006Z,101080.98
2022-12-05T12:13:20.476Z,101083.61
2022-12-05T12:16:08.468Z,101082.27
2022-12-05T12:19:07.379Z,101071.54
2022-12-05T12:21:52.372Z,101068.36
2022-12-05T12:24:35.366Z,101064.20
2022-12-05T12:27:16.860Z,101059.72
2022-12-05T12:30:03.429Z,101054.16
2022-12-05T12:32:52.293Z,101057.25
2022-12-05T12:35:31.419Z,101059.79
2022-12-05T12:38:32.024Z,101058.48
2022-12-05T12:41:11.467Z,101056.46
2022-12-05T12:43:58.630Z,101054.39
2022-12-05T12:46:44.741Z,101056.91
2022-12-05T12:49:38.202Z,101056.66
2022-12-05T12:52:16.195Z,101057.46
2022-12-05T12:55:08.145Z,101053.86
2022-12-05T12:57:55.107Z,101057.95
2022-12-05T13:00:39.437Z,101055.30
2022-12-05T13:03:18.795Z,101052.64
2022-12-05T13:05:54.435Z,101053.02
2022-12-05T13:08:35.156Z,101054.96
2022-12-05T13:11:11.557Z,101054.90
2022-12-05T13:13:49.306Z,101053.35
2022-12-05T13:16:28.476Z,101056.58
2022-12-05T13:19:00.878Z,101058.66
2022-12-05T13:21:34.195Z,101056.34
2022-12-05T13:24:06.563Z,101050.30
2022-12-05T13:26:46.641Z,101053.88
2022-12-05T13:29:31.217Z,101054.70
2022-12-05T13:32:04.202Z,101049.01
2022-12-05T13:34:53.187Z,101045.25
2022-12-05T13:37:45.945Z,101045.34
2022-12-05T13:40:50.918Z,101047.58
2022-12-05T13:43:26.049Z,101047.75
2022-12-05T13:46:07.011Z,101039.40
2022-12-05T13:48:42.148Z,101040.84
2022-12-05T13:51:23.909Z,101040.52
2022-12-05T13:54:05.033Z,101040.02
2022-12-05T13:56:52.786Z,101035.44
2022-12-05T14:00:05.026Z,101032.28
2022-12-05T14:02:54.700Z,101029.50
2022-12-05T14:05:50.027Z,101032.45
2022-12-05T14:09:07.354Z,101029.58
2022-12-05T14:11:39.269Z,101032.20
2022-12-05T14:14:13.095Z,101034.21
2022-12-05T14:16:50.400Z,101039.20
2022-12-05T14:20:01.383Z,101040.08
2022-12-05T14:23:03.319Z,101037.86
2022-12-05T14:26:05.611Z,101041.38
2022-12-05T14:29:04.744Z,101038.92
2022-12-05T14:31:49.933Z,101030.82
2022-12-05T14:34:26.030Z,101029.30
2022-12-05T14:37:21.788Z,101027.70
2022-12-05T14:39:56.125Z,101034.64
2022-12-05T14:42:37.407Z,101032.77
2022-12-05T14:45:28.010Z,101030.36
2022-12-05T14:48:01.851Z,101032.67
2022-12-05T14:50:45.710Z,101030.63
2022-12-05T14:53:36.777Z,101028.27
2022-12-05T14:56:17.358Z,101026.09
2022-12-05T14:59:04.385Z,101025.44
2022-12-05T15:01:45.079Z,101026.55
2022-12-05T15:04:26.310Z,101022.02
2022-12-05T15:06:58.597Z,101023.80
2022-12-05T15:09:39.010Z,101020.20
2022-12-05T15:12:17.287Z,101020.90
2022-12-05T15:14:55.941Z,101020.55
2022-12-05T15:17:32.863Z,101021.52
2022-12-05T15:20:15.388Z,101018.16
2022-12-05T15:22:47.300Z,101016.25
2022-12-05T15:25:25.223Z,101008.45
2022-12-05T15:28:20.443Z,101010.70
2022-12-05T15:30:58.913Z,101008.78
2022-12-05T15:33:31.037Z,101010.79
2022-12-05T15:36:03.394Z,101011.33
2022-12-05T15:38:36.633Z,101004.66
2022-12-05T15:41:19.554Z,101005.47
2022-12-05T15:43:59.997Z,101007.30
2022-12-05T15:46:32.080Z,101005.23
2022-12-05T15:49:23.221Z,101005.16
2022-12-05T15:51:59.857Z,101007.27
2022-12-05T15:54:36.078Z,101005.30
2022-12-05T15:57:14.678Z,101012.40
2022-12-05T15:59:51.083Z,101012.03
2022-12-05T16:02:27.075Z,101010.35
2022-12-05T16:05:01.070Z,101009.98
2022-12-05T16:07:36.021Z,101007.43
2022-12-05T16:10:13.945Z,101004.78
2022-12-05T16:12:45.982Z,100997.69
2022-12-05T16:15:23.574Z,101002.90
2022-12-05T16:17:58.588Z,101001.17
2022-12-05T16:20:34.531Z,100995.01
2022-12-05T16:23:22.197Z,100989.84
2022-12-05T16:25:54.653Z,100991.48
2022-12-05T16:28:26.525Z,100990.66
2022-12-05T16:31:06.519Z,100987.70
2022-12-05T16:33:43.321Z,100989.79
2022-12-05T16:36:24.548Z,100987.36
2022-12-05T16:39:03.813Z,100985.27
2022-12-05T16:41:40.712Z,100986.84
2022-12-05T16:44:57.776Z,100987.38
2022-12-05T16:47:57.283Z,100994.00
2022-12-05T16:50:38.450Z,100997.49
2022-12-05T16:53:20.016Z,101003.84
2022-12-05T16:55:50.437Z,101005.98
2022-12-05T16:58:26.522Z,101005.23
2022-12-05T17:01:03.791Z,101002.98
2022-12-05T17:03:36.336Z,100998.98
2022-12-05T17:06:08.760Z,100998.98
2022-12-05T17:08:40.928Z,100998.15
2022-12-05T17:11:18.715Z,100995.38
2022-12-05T17:13:51.221Z,100993.40
2022-12-05T17:16:23.503Z,100996.91
2022-12-05T17:18:56.043Z,100996.91
2022-12-05T17:21:32.222Z,100995.39
2022-12-05T17:24:04.683Z,100992.31
2022-12-05T17:26:36.559Z,100989.40
2022-12-05T17:29:08.834Z,100993.54
2022-12-05T17:31:41.012Z,100990.43
2022-12-05T17:34:17.568Z,100993.11
2022-12-05T17:36:49.532Z,100993.56
2022-12-05T17:39:27.841Z,100989.27
2022-12-05T17:42:00.499Z,100993.33
2022-12-05T17:44:32.650Z,100994.06
2022-12-05T17:47:07.949Z,100991.56
2022-12-05T17:49:40.824Z,100994.66
2022-12-05T17:52:21.588Z,100992.55
2022-12-05T17:54:54.269Z,100993.21
2022-12-05T17:57:26.850Z,100997.01
2022-12-05T17:59:58.841Z,100996.88
2022-12-05T18:02:31.385Z,100992.46
2022-12-05T18:05:03.375Z,100994.44
2022-12-05T18:07:35.234Z,100993.08
2022-12-05T18:10:16.751Z,100991.42
2022-12-05T18:12:49.404Z,100990.45
2022-12-05T18:15:21.674Z,100991.02
2022-12-05T18:17:55.588Z,100993.45
2022-12-05T18:20:28.083Z,100994.36
2022-12-05T18:23:01.372Z,100992.02
2022-12-05T18:25:33.300Z,100992.90
2022-12-05T18:28:05.219Z,100989.48
2022-12-05T18:30:37.217Z,100991.09
2022-12-05T18:33:09.042Z,100990.73
2022-12-05T18:35:44.321Z,100988.03
2022-12-05T18:38:16.221Z,100983.34
2022-12-05T18:40:48.077Z,100985.63
2022-12-05T18:43:20.136Z,100981.80
2022-12-05T18:45:59.400Z,100978.89
2022-12-05T18:48:44.636Z,100978.92
2022-12-05T18:51:20.907Z,100979.86
2022-12-05T18:53:54.861Z,100981.04
2022-12-05T18:56:29.071Z,100980.96
2022-12-05T18:59:03.943Z,100983.41
2022-12-05T19:01:38.883Z,100984.17
2022-12-05T19:04:13.396Z,100981.38
2022-12-05T19:06:50.048Z,100980.41
2022-12-05T19:09:24.147Z,100977.72
2022-12-05T19:11:58.839Z,100973.58
2022-12-05T19:14:33.179Z,100975.75
2022-12-05T19:17:05.772Z,100979.00
2022-12-05T19:19:37.779Z,100973.38
2022-12-05T19:22:09.977Z,100972.80
2022-12-05T19:24:41.816Z,100977.12
2022-12-05T19:27:14.161Z,100980.23
2022-12-05T19:29:46.199Z,100978.84
2022-12-05T19:32:18.113Z,100975.86
2022-12-05T19:34:51.373Z,100970.77
2022-12-05T19:37:23.479Z,100976.48
2022-12-05T19:39:55.787Z,100971.54
2022-12-05T19:42:29.456Z,100970.12
2022-12-05T19:45:07.534Z,100969.56
2022-12-05T19:47:40.732Z,100974.52
2022-12-05T19:50:40.044Z,100971.20
2022-12-05T19:53:12.480Z,100972.38
2022-12-05T19:55:44.329Z,100973.73
2022-12-05T19:58:17.951Z,100975.29
2022-12-05T20:00:52.522Z,100976.64
2022-12-05T20:03:24.573Z,100976.07
2022-12-05T20:06:00.417Z,100975.79
2022-12-05T20:08:32.346Z,100976.04
2022-12-05T20:11:08.667Z,100973.60
2022-12-05T20:13:47.022Z,100974.77
2022-12-05T20:16:22.423Z,100969.34
2022-12-05T20:18:55.490Z,100967.79
2022-12-05T20:21:29.038Z,100969.31
2022-12-05T20:24:02.462Z,100970.65
2022-12-05T20:26:37.244Z,100969.83
2022-12-05T20:29:09.516Z,100968.25
2022-12-05T20:31:43.636Z,100962.79
2022-12-05T20:34:16.182Z,100959.88
2022-12-05T20:36:48.491Z,100958.94
2022-12-05T20:39:20.623Z,100958.38
2022-12-05T20:41:52.636Z,100958.90
2022-12-05T20:44:24.813Z,100960.00
2022-12-05T20:46:56.593Z,100961.35
2022-12-05T20:49:28.537Z,100963.77
2022-12-05T20:52:00.350Z,100965.13
2022-12-05T20:54:32.363Z,100964.27
2022-12-05T20:57:04.258Z,100961.99
2022-12-05T20:59:36.300Z,100956.94
2022-12-05T21:02:08.146Z,100950.45
2022-12-05T21:04:41.153Z,100949.17
2022-12-05T21:07:12.969Z,100944.14
2022-12-05T21:09:45.033Z,100939.84
2022-12-05T21:12:17.343Z,100936.27
2022-12-05T21:14:49.305Z,100933.86
2022-12-05T21:17:21.154Z,100931.91
2022-12-05T21:19:53.008Z,100931.55
2022-12-05T21:22:24.864Z,100932.50
2022-12-05T21:24:56.868Z,100934.86
2022-12-05T21:27:28.669Z,100932.52
2022-12-05T21:30:00.732Z,100929.77
2022-12-05T21:32:32.928Z,100932.90
2022-12-05T21:35:05.479Z,100935.44
2022-12-05T21:37:38.856Z,100938.13
2022-12-05T21:40:16.312Z,100939.61
2022-12-05T21:42:48.121Z,100940.16
2022-12-05T21:45:20.184Z,100941.53
2022-12-05T21:47:52.485Z,100939.20
2022-12-05T21:50:28.213Z,100931.73
2022-12-05T21:53:00.025Z,100928.57
2022-12-05T21:55:32.063Z,100927.75
2022-12-05T21:58:03.869Z,100925.69
2022-12-05T22:00:36.118Z,100923.92
2022-12-05T22:03:08.414Z,100925.77
2022-12-05T22:05:41.031Z,100925.65
2022-12-05T22:08:13.719Z,100925.83
2022-12-05T22:10:45.666Z,100922.71
2022-12-05T22:13:17.557Z,100918.08
2022-12-05T22:15:49.520Z,100919.59
2022-12-05T22:18:21.453Z,100918.59
2022-12-05T22:20:59.289Z,100919.89
2022-12-05T22:23:32.736Z,100918.77
2022-12-05T22:26:06.594Z,100916.83
2022-12-05T22:28:38.847Z,100915.58
2022-12-05T22:31:15.084Z,100915.44
2022-12-05T22:33:48.107Z,100914.88
2022-12-05T22:36:21.281Z,100913.39
2022-12-05T22:38:53.063Z,100907.95
2022-12-05T22:41:27.003Z,100903.29
2022-12-05T22:44:01.256Z,100900.59
2022-12-05T22:46:33.490Z,100897.91
2022-12-05T22:49:05.829Z,100895.44
2022-12-05T22:51:38.475Z,100897.05
2022-12-05T22:54:10.279Z,100900.73
2022-12-05T22:56:42.185Z,100900.15
2022-12-05T22:59:14.961Z,100900.54
2022-12-05T23:01:46.856Z,100899.02
2022-12-05T23:04:20.196Z,100898.25
2022-12-05T23:06:52.332Z,100895.20
2022-12-05T23:09:24.357Z,100893.44
2022-12-05T23:11:56.524Z,100890.79
2022-12-05T23:14:29.103Z,100885.40
2022-12-05T23:17:01.063Z,100878.45
2022-12-05T23:19:32.848Z,100876.77
2022-12-05T23:22:05.362Z,100877.30
2022-12-05T23:24:37.190Z,100873.71
2022-12-05T23:27:09.042Z,100872.04
2022-12-05T23:29:40.902Z,100869.67
2022-12-05T23:32:12.813Z,100870.98
2022-12-05T23:34:44.831Z,100866.58
2022-12-05T23:37:16.911Z,100865.39
2022-12-05T23:39:48.781Z,100857.72
2022-12-05T23:42:20.626Z,100856.05
2022-12-05T23:44:52.422Z,100851.42
2022-12-05T23:47:24.507Z,100845.63
2022-12-05T23:49:56.505Z,100843.73
2022-12-05T23:52:28.627Z,100841.65
2022-12-05T23:55:00.512Z,100840.56
2022-12-05T23:57:32.484Z,100838.91
